createdAt,value
2023-02-24T00:04:38.636Z,1005.5
2023-02-24T00:20:13.060Z,1005.5
2023-02-24T00:35:47.468Z,1005.4
2023-02-24T00:51:22.151Z,1005.3
2023-02-24T01:06:56.952Z,1005.2
2023-02-24T01:22:31.334Z,1005.2
2023-02-24T01:38:05.783Z,1005.1
2023-02-24T01:53:40.229Z,1004.9
2023-02-24T02:09:14.614Z,1004.7
2023-02-24T02:24:49.073Z,1004.5
2023-02-24T02:40:23.508Z,1004.4
2023-02-24T02:55:57.934Z,1004.3
2023-02-24T03:11:32.307Z,1004.2
2023-02-24T03:27:06.719Z,1003.9
2023-02-24T03:42:41.114Z,1003.7
2023-02-24T03:58:15.514Z,1003.6
2023-02-24T04:13:49.898Z,1003.5
2023-02-24T04:29:24.286Z,1003.4
2023-02-24T04:44:58.788Z,1003.2
2023-02-24T05:00:33.202Z,1002.9
2023-02-24T05:16:07.689Z,1002.7
2023-02-24T05:31:42.540Z,1002.6
2023-02-24T05:47:17.738Z,1002.5
2023-02-24T06:02:51.868Z,1002.8
2023-02-24T06:18:26.772Z,1002.9
2023-02-24T06:34:01.162Z,1002.9
2023-02-24T06:49:35.544Z,1002.7
2023-02-24T07:05:09.887Z,1002.7
2023-02-24T07:20:44.219Z,1002.5
2023-02-24T07:36:18.600Z,1002.6
2023-02-24T07:51:53.153Z,1002.5
2023-02-24T08:07:27.554Z,1002.4
2023-02-24T08:23:01.876Z,1002.1
2023-02-24T08:38:36.227Z,1001.8
2023-02-24T08:54:10.590Z,1001.5
2023-02-24T09:09:44.967Z,1001.2
2023-02-24T09:25:19.266Z,1000.8
2023-02-24T09:40:53.669Z,1000.4
2023-02-24T09:56:28.191Z,1000.1
2023-02-24T10:12:02.632Z,999.7
2023-02-24T10:27:36.793Z,999.5
2023-02-24T10:43:11.184Z,999.1
2023-02-24T10:58:45.857Z,998.7
2023-02-24T11:14:20.470Z,998.4
2023-02-24T11:29:54.859Z,998.1
2023-02-24T11:45:29.375Z,997.8
2023-02-24T12:01:03.906Z,997.6
2023-02-24T12:16:38.904Z,997.3
2023-02-24T12:32:13.444Z,997.1
2023-02-24T12:47:48.750Z,996.9
2023-02-24T13:03:23.356Z,996.7
2023-02-24T13:18:57.785Z,996.4
2023-02-24T13:34:32.172Z,996.3
2023-02-24T13:50:06.613Z,996.1
2023-02-24T14:05:41.006Z,996.1
2023-02-24T14:21:15.432Z,996
2023-02-24T14:36:49.787Z,996.1
2023-02-24T14:52:24.165Z,996.1
2023-02-24T15:07:58.664Z,996.1
2023-02-24T15:23:33.069Z,995.9
2023-02-24T15:39:07.450Z,995.7
2023-02-24T15:54:41.884Z,995.7
2023-02-24T16:10:16.278Z,995.6
2023-02-24T16:25:50.661Z,995.5
2023-02-24T16:41:24.989Z,995.4
2023-02-24T16:56:59.368Z,995.4
2023-02-24T17:12:34.039Z,995.3
2023-02-24T17:28:08.396Z,995.2
2023-02-24T17:43:42.715Z,995.2
2023-02-24T17:59:17.062Z,995
2023-02-24T18:15:02.499Z,995
2023-02-24T18:30:41.253Z,994.8
2023-02-24T18:46:16.300Z,994.6
2023-02-24T19:01:51.002Z,994.5
2023-02-24T19:17:25.804Z,994.4
2023-02-24T19:33:00.330Z,994.3
2023-02-24T19:48:34.747Z,994.3
2023-02-24T20:04:09.130Z,994.1
2023-02-24T20:19:43.792Z,994
2023-02-24T20:35:18.136Z,994.1
2023-02-24T20:50:52.477Z,993.9
2023-02-24T21:06:27.200Z,993.8
2023-02-24T21:22:01.887Z,993.6
2023-02-24T21:37:36.205Z,993.5
2023-02-24T21:53:10.535Z,993.5
2023-02-24T22:08:44.889Z,993.5
2023-02-24T22:24:19.249Z,993.6
2023-02-24T22:39:53.604Z,993.6
2023-02-24T22:55:29.507Z,993.7
2023-02-24T23:11:03.850Z,993.7
2023-02-24T23:26:38.270Z,993.8
2023-02-24T23:42:12.717Z,993.9
2023-02-24T23:57:47.013Z,994
